KSFB/SFB METAR and TAF weather

Enter ICAO airport designator
Station Type Date Time Source
KSFB METAR 2021/09/27 06:53 UTC NOAA

KSFB 270653Z AUTO 00000KT 10SM CLR 21/18 A3009 RMK AO2 SLP187 T02060183


Station Type Date Time Source
KSFB Decoded METAR 2021/09/27 06:53 UTC NOAA

ORLANDO SANFORD AIRPORT, FL, United States (KSFB) 28-47N 081-15W
Sep 27, 2021 - 02:53 AM EDT / 2021.09.27 0653 UTC
Wind: Calm:0
Visibility: 10 mile(s):0
Sky conditions: clear
Temperature: 69.1 F (20.6 C)
Dew Point: 64.9 F (18.3 C)
Relative Humidity: 86%
Pressure (altimeter): 30.09 in. Hg (1018 hPa)
ob: KSFB 270653Z AUTO 00000KT 10SM CLR 21/18 A3009 RMK AO2 SLP187 T02060183
cycle: 7

Station Type Date Time Source
KSFB TAF 2021/09/27 06:22 UTC NOAA

TAF KSFB 270520Z 2706/2806 00000KT P6SM SKC
FM271400 07008KT P6SM FEW035
FM280200 VRB03KT P6SM SKC

Example: see airport list